sensor_id;sensor_type;location;lat;lon;timestamp;pressure;altitude;pressure_sealevel;temperature;humidity
9110;BME280;4590;51.462;6.692;2023-06-10T00:01:17;101198.97;;;24.00;41.29
9110;BME280;4590;51.462;6.692;2023-06-10T00:03:42;101189.31;;;23.97;40.76
9110;BME280;4590;51.462;6.692;2023-06-10T00:06:08;101204.91;;;23.91;40.57
9110;BME280;4590;51.462;6.692;2023-06-10T00:08:33;101194.88;;;23.90;40.12
9110;BME280;4590;51.462;6.692;2023-06-10T00:10:58;101188.41;;;23.86;41.18
9110;BME280;4590;51.462;6.692;2023-06-10T00:13:23;101184.72;;;23.82;40.81
9110;BME280;4590;51.462;6.692;2023-06-10T00:15:49;101190.69;;;23.77;40.91
9110;BME280;4590;51.462;6.692;2023-06-10T00:18:14;101190.28;;;23.75;41.82
9110;BME280;4590;51.462;6.692;2023-06-10T00:20:39;101186.53;;;23.64;42.74
9110;BME280;4590;51.462;6.692;2023-06-10T00:23:04;101187.81;;;23.70;41.58
9110;BME280;4590;51.462;6.692;2023-06-10T00:25:31;101190.97;;;23.65;41.35
9110;BME280;4590;51.462;6.692;2023-06-10T00:27:58;101191.72;;;23.62;41.70
9110;BME280;4590;51.462;6.692;2023-06-10T00:30:23;101190.09;;;23.57;41.91
9110;BME280;4590;51.462;6.692;2023-06-10T00:32:48;101196.47;;;23.54;41.40
9110;BME280;4590;51.462;6.692;2023-06-10T00:35:13;101190.78;;;23.51;41.67
9110;BME280;4590;51.462;6.692;2023-06-10T00:37:38;101196.72;;;23.45;41.27
9110;BME280;4590;51.462;6.692;2023-06-10T00:40:04;101190.66;;;23.40;42.87
9110;BME280;4590;51.462;6.692;2023-06-10T00:42:29;101201.41;;;23.34;42.20
9110;BME280;4590;51.462;6.692;2023-06-10T00:44:54;101199.41;;;23.35;41.86
9110;BME280;4590;51.462;6.692;2023-06-10T00:47:20;101204.53;;;23.26;43.61
9110;BME280;4590;51.462;6.692;2023-06-10T00:49:46;101195.69;;;23.24;42.76
9110;BME280;4590;51.462;6.692;2023-06-10T00:52:11;101197.63;;;23.20;42.76
9110;BME280;4590;51.462;6.692;2023-06-10T00:54:36;101200.06;;;23.21;42.93
9110;BME280;4590;51.462;6.692;2023-06-10T00:57:02;101206.78;;;23.17;42.74
9110;BME280;4590;51.462;6.692;2023-06-10T00:59:30;101211.97;;;23.15;42.81
9110;BME280;4590;51.462;6.692;2023-06-10T01:01:56;101199.56;;;23.16;42.82
9110;BME280;4590;51.462;6.692;2023-06-10T01:04:21;101197.13;;;23.14;43.10
9110;BME280;4590;51.462;6.692;2023-06-10T01:09:21;101208.38;;;23.14;42.21
9110;BME280;4590;51.462;6.692;2023-06-10T01:11:58;101206.28;;;23.07;43.81
9110;BME280;4590;51.462;6.692;2023-06-10T01:14:26;101201.44;;;23.04;43.38
9110;BME280;4590;51.462;6.692;2023-06-10T01:16:52;101214.28;;;23.05;42.77
9110;BME280;4590;51.462;6.692;2023-06-10T01:19:18;101217.84;;;23.02;43.23
9110;BME280;4590;51.462;6.692;2023-06-10T01:21:43;101212.16;;;22.99;43.10
9110;BME280;4590;51.462;6.692;2023-06-10T01:24:13;101207.53;;;22.84;44.21
9110;BME280;4590;51.462;6.692;2023-06-10T01:26:38;101216.38;;;22.86;44.01
9110;BME280;4590;51.462;6.692;2023-06-10T01:29:54;101211.53;;;22.83;43.18
9110;BME280;4590;51.462;6.692;2023-06-10T01:31:52;101216.28;;;22.79;43.13
9110;BME280;4590;51.462;6.692;2023-06-10T01:34:20;101211.88;;;22.78;42.85
9110;BME280;4590;51.462;6.692;2023-06-10T01:36:47;101206.53;;;22.72;43.08
9110;BME280;4590;51.462;6.692;2023-06-10T01:39:14;101213.25;;;22.64;44.00
9110;BME280;4590;51.462;6.692;2023-06-10T01:41:39;101210.75;;;22.59;44.14
9110;BME280;4590;51.462;6.692;2023-06-10T01:44:05;101208.97;;;22.48;45.39
9110;BME280;4590;51.462;6.692;2023-06-10T01:46:30;101209.78;;;22.48;44.79
9110;BME280;4590;51.462;6.692;2023-06-10T01:48:56;101210.47;;;22.42;44.86
9110;BME280;4590;51.462;6.692;2023-06-10T01:51:21;101210.91;;;22.44;44.21
9110;BME280;4590;51.462;6.692;2023-06-10T01:53:46;101218.38;;;22.36;45.39
9110;BME280;4590;51.462;6.692;2023-06-10T01:56:11;101211.53;;;22.33;45.41
9110;BME280;4590;51.462;6.692;2023-06-10T01:58:41;101221.16;;;22.36;44.47
9110;BME280;4590;51.462;6.692;2023-06-10T02:01:07;101215.91;;;22.31;45.73
9110;BME280;4590;51.462;6.692;2023-06-10T02:03:32;101213.47;;;22.29;44.71
9110;BME280;4590;51.462;6.692;2023-06-10T02:05:57;101210.22;;;22.27;44.82
9110;BME280;4590;51.462;6.692;2023-06-10T02:08:22;101210.09;;;22.20;45.58
9110;BME280;4590;51.462;6.692;2023-06-10T02:10:47;101209.28;;;22.20;45.95
9110;BME280;4590;51.462;6.692;2023-06-10T02:13:14;101206.88;;;22.18;45.02
9110;BME280;4590;51.462;6.692;2023-06-10T02:15:39;101211.09;;;22.09;47.60
9110;BME280;4590;51.462;6.692;2023-06-10T02:18:05;101217.44;;;22.05;47.39
9110;BME280;4590;51.462;6.692;2023-06-10T02:20:30;101217.50;;;22.09;45.05
9110;BME280;4590;51.462;6.692;2023-06-10T02:22:55;101227.47;;;22.07;46.37
9110;BME280;4590;51.462;6.692;2023-06-10T02:25:21;101220.59;;;22.04;45.82
9110;BME280;4590;51.462;6.692;2023-06-10T02:27:46;101229.78;;;22.01;46.95
9110;BME280;4590;51.462;6.692;2023-06-10T02:30:11;101224.06;;;21.97;46.97
9110;BME280;4590;51.462;6.692;2023-06-10T02:32:37;101218.47;;;21.97;46.19
9110;BME280;4590;51.462;6.692;2023-06-10T02:35:02;101223.63;;;21.95;46.41
9110;BME280;4590;51.462;6.692;2023-06-10T02:37:28;101234.31;;;21.90;47.97
9110;BME280;4590;51.462;6.692;2023-06-10T02:39:53;101220.75;;;21.92;46.27
9110;BME280;4590;51.462;6.692;2023-06-10T02:42:19;101219.91;;;21.88;46.63
9110;BME280;4590;51.462;6.692;2023-06-10T02:44:44;101214.53;;;21.79;48.58
9110;BME280;4590;51.462;6.692;2023-06-10T02:47:09;101217.31;;;21.79;48.96
9110;BME280;4590;51.462;6.692;2023-06-10T02:49:35;101218.06;;;21.76;47.36
9110;BME280;4590;51.462;6.692;2023-06-10T02:52:00;101225.22;;;21.74;48.19
9110;BME280;4590;51.462;6.692;2023-06-10T02:54:25;101219.59;;;21.74;46.83
9110;BME280;4590;51.462;6.692;2023-06-10T02:56:51;101218.78;;;21.73;47.22
9110;BME280;4590;51.462;6.692;2023-06-10T02:59:16;101212.34;;;21.69;48.21
9110;BME280;4590;51.462;6.692;2023-06-10T03:01:42;101217.50;;;21.67;47.91
9110;BME280;4590;51.462;6.692;2023-06-10T03:04:07;101215.00;;;21.62;48.41
9110;BME280;4590;51.462;6.692;2023-06-10T03:06:32;101220.16;;;21.60;48.93
9110;BME280;4590;51.462;6.692;2023-06-10T03:08:59;101217.72;;;21.58;49.93
9110;BME280;4590;51.462;6.692;2023-06-10T03:11:24;101222.44;;;21.54;50.47
9110;BME280;4590;51.462;6.692;2023-06-10T03:13:50;101220.81;;;21.53;48.15
9110;BME280;4590;51.462;6.692;2023-06-10T03:16:16;101221.19;;;21.52;47.77
9110;BME280;4590;51.462;6.692;2023-06-10T03:18:41;101220.38;;;21.51;49.71
9110;BME280;4590;51.462;6.692;2023-06-10T03:21:06;101221.56;;;21.50;48.97
9110;BME280;4590;51.462;6.692;2023-06-10T03:23:31;101227.25;;;21.54;48.30
9110;BME280;4590;51.462;6.692;2023-06-10T03:25:57;101230.41;;;21.52;47.83
9110;BME280;4590;51.462;6.692;2023-06-10T03:28:23;101225.53;;;21.49;48.93
9110;BME280;4590;51.462;6.692;2023-06-10T03:30:48;101237.09;;;21.48;48.94
9110;BME280;4590;51.462;6.692;2023-06-10T03:33:13;101233.03;;;21.45;50.02
9110;BME280;4590;51.462;6.692;2023-06-10T03:35:39;101242.97;;;21.43;49.92
9110;BME280;4590;51.462;6.692;2023-06-10T03:38:04;101240.94;;;21.40;49.44
9110;BME280;4590;51.462;6.692;2023-06-10T03:40:30;101240.84;;;21.36;49.94
9110;BME280;4590;51.462;6.692;2023-06-10T03:42:56;101241.94;;;21.31;49.87
9110;BME280;4590;51.462;6.692;2023-06-10T03:45:21;101248.38;;;21.32;47.81
9110;BME280;4590;51.462;6.692;2023-06-10T03:47:47;101249.09;;;21.29;49.09
9110;BME280;4590;51.462;6.692;2023-06-10T03:50:13;101245.84;;;21.27;48.93
9110;BME280;4590;51.462;6.692;2023-06-10T03:52:38;101259.84;;;21.27;48.91
9110;BME280;4590;51.462;6.692;2023-06-10T03:55:04;101255.41;;;21.26;49.25
9110;BME280;4590;51.462;6.692;2023-06-10T03:57:30;101254.56;;;21.22;49.48
9110;BME280;4590;51.462;6.692;2023-06-10T03:59:55;101254.59;;;21.25;48.80
9110;BME280;4590;51.462;6.692;2023-06-10T04:02:21;101257.78;;;21.24;48.33
9110;BME280;4590;51.462;6.692;2023-06-10T04:04:47;101266.09;;;21.20;50.22
9110;BME280;4590;51.462;6.692;2023-06-10T04:07:12;101251.31;;;21.20;49.68
9110;BME280;4590;51.462;6.692;2023-06-10T04:09:38;101269.59;;;21.17;50.23
9110;BME280;4590;51.462;6.692;2023-06-10T04:12:04;101260.97;;;21.22;48.97
9110;BME280;4590;51.462;6.692;2023-06-10T04:14:31;101265.28;;;21.20;49.86
9110;BME280;4590;51.462;6.692;2023-06-10T04:16:56;101268.22;;;21.27;47.56
9110;BME280;4590;51.462;6.692;2023-06-10T04:19:21;101266.56;;;21.22;48.94
9110;BME280;4590;51.462;6.692;2023-06-10T04:21:46;101273.78;;;21.23;49.56
9110;BME280;4590;51.462;6.692;2023-06-10T04:24:12;101266.56;;;21.22;49.50
9110;BME280;4590;51.462;6.692;2023-06-10T04:26:37;101270.63;;;21.25;49.04
9110;BME280;4590;51.462;6.692;2023-06-10T04:29:02;101270.97;;;21.23;49.16
9110;BME280;4590;51.462;6.692;2023-06-10T04:31:27;101279.78;;;21.25;48.39
9110;BME280;4590;51.462;6.692;2023-06-10T04:33:53;101293.00;;;21.25;48.97
9110;BME280;4590;51.462;6.692;2023-06-10T04:36:18;101282.53;;;21.22;48.75
9110;BME280;4590;51.462;6.692;2023-06-10T04:38:43;101290.56;;;21.23;48.76
9110;BME280;4590;51.462;6.692;2023-06-10T04:41:09;101282.19;;;21.23;49.08
9110;BME280;4590;51.462;6.692;2023-06-10T04:43:34;101284.97;;;21.23;48.99
9110;BME280;4590;51.462;6.692;2023-06-10T04:45:59;101294.59;;;21.26;48.16
9110;BME280;4590;51.462;6.692;2023-06-10T04:48:24;101285.84;;;21.27;48.82
9110;BME280;4590;51.462;6.692;2023-06-10T04:50:50;101282.22;;;21.27;49.04
9110;BME280;4590;51.462;6.692;2023-06-10T04:53:15;101279.97;;;21.32;48.63
9110;BME280;4590;51.462;6.692;2023-06-10T04:55:40;101282.03;;;21.35;48.34
9110;BME280;4590;51.462;6.692;2023-06-10T04:58:05;101274.81;;;21.34;48.21
9110;BME280;4590;51.462;6.692;2023-06-10T05:00:30;101278.16;;;21.40;48.12
9110;BME280;4590;51.462;6.692;2023-06-10T05:02:56;101277.34;;;21.40;48.78
9110;BME280;4590;51.462;6.692;2023-06-10T05:05:21;101277.75;;;21.42;48.63
9110;BME280;4590;51.462;6.692;2023-06-10T05:07:46;101272.25;;;21.45;47.59
9110;BME280;4590;51.462;6.692;2023-06-10T05:10:11;101280.28;;;21.47;48.14
9110;BME280;4590;51.462;6.692;2023-06-10T05:12:40;101279.53;;;21.50;48.08
9110;BME280;4590;51.462;6.692;2023-06-10T05:15:06;101282.06;;;21.55;47.26
9110;BME280;4590;51.462;6.692;2023-06-10T05:17:31;101281.63;;;21.53;47.14
9110;BME280;4590;51.462;6.692;2023-06-10T05:19:56;101284.88;;;21.55;47.05
9110;BME280;4590;51.462;6.692;2023-06-10T05:22:22;101290.16;;;21.60;47.08
9110;BME280;4590;51.462;6.692;2023-06-10T05:24:49;101293.03;;;21.63;47.07
9110;BME280;4590;51.462;6.692;2023-06-10T05:27:14;101287.06;;;21.65;47.54
9110;BME280;4590;51.462;6.692;2023-06-10T05:29:40;101287.34;;;21.79;46.95
9110;BME280;4590;51.462;6.692;2023-06-10T05:32:05;101290.44;;;21.93;46.44
9110;BME280;4590;51.462;6.692;2023-06-10T05:34:30;101291.06;;;22.02;46.52
9110;BME280;4590;51.462;6.692;2023-06-10T05:36:56;101294.00;;;22.10;46.08
9110;BME280;4590;51.462;6.692;2023-06-10T05:39:21;101284.66;;;22.25;45.67
9110;BME280;4590;51.462;6.692;2023-06-10T05:41:46;101289.28;;;22.36;45.64
9110;BME280;4590;51.462;6.692;2023-06-10T05:44:11;101284.72;;;22.51;45.37
9110;BME280;4590;51.462;6.692;2023-06-10T05:46:36;101287.84;;;22.69;45.47
9110;BME280;4590;51.462;6.692;2023-06-10T05:49:02;101288.91;;;22.84;44.81
9110;BME280;4590;51.462;6.692;2023-06-10T05:51:27;101290.75;;;22.99;44.33
9110;BME280;4590;51.462;6.692;2023-06-10T05:53:53;101286.97;;;23.14;44.33
9110;BME280;4590;51.462;6.692;2023-06-10T05:56:18;101292.69;;;23.21;43.51
9110;BME280;4590;51.462;6.692;2023-06-10T05:58:43;101285.78;;;23.41;44.03
9110;BME280;4590;51.462;6.692;2023-06-10T06:01:08;101294.09;;;23.61;43.82
9110;BME280;4590;51.462;6.692;2023-06-10T06:03:34;101290.66;;;23.78;43.30
9110;BME280;4590;51.462;6.692;2023-06-10T06:05:59;101289.63;;;23.93;42.62
9110;BME280;4590;51.462;6.692;2023-06-10T06:08:24;101291.41;;;24.05;41.70
9110;BME280;4590;51.462;6.692;2023-06-10T06:10:49;101299.16;;;24.19;41.66
9110;BME280;4590;51.462;6.692;2023-06-10T06:13:15;101301.16;;;24.18;41.58
9110;BME280;4590;51.462;6.692;2023-06-10T06:15:40;101296.34;;;24.19;39.99
9110;BME280;4590;51.462;6.692;2023-06-10T06:18:05;101302.16;;;24.33;40.48
9110;BME280;4590;51.462;6.692;2023-06-10T06:20:30;101298.91;;;24.31;40.75
9110;BME280;4590;51.462;6.692;2023-06-10T06:22:55;101300.19;;;24.37;40.05
9110;BME280;4590;51.462;6.692;2023-06-10T06:25:21;101294.31;;;24.53;40.86
9110;BME280;4590;51.462;6.692;2023-06-10T06:27:46;101296.03;;;24.64;40.40
9110;BME280;4590;51.462;6.692;2023-06-10T06:30:11;101297.28;;;24.70;40.13
9110;BME280;4590;51.462;6.692;2023-06-10T06:32:37;101299.78;;;24.82;39.22
9110;BME280;4590;51.462;6.692;2023-06-10T06:35:02;101303.94;;;24.96;40.11
9110;BME280;4590;51.462;6.692;2023-06-10T06:37:27;101305.28;;;25.16;39.45
9110;BME280;4590;51.462;6.692;2023-06-10T06:39:53;101307.38;;;25.26;39.26
9110;BME280;4590;51.462;6.692;2023-06-10T06:42:18;101293.38;;;25.44;39.73
9110;BME280;4590;51.462;6.692;2023-06-10T06:44:44;101296.66;;;25.57;39.18
9110;BME280;4590;51.462;6.692;2023-06-10T06:47:09;101301.97;;;25.69;39.21
9110;BME280;4590;51.462;6.692;2023-06-10T06:49:34;101303.63;;;25.73;39.24
9110;BME280;4590;51.462;6.692;2023-06-10T06:52:00;101306.09;;;25.89;38.94
9110;BME280;4590;51.462;6.692;2023-06-10T06:54:25;101312.97;;;26.02;37.53
9110;BME280;4590;51.462;6.692;2023-06-10T06:56:51;101308.19;;;26.10;38.43
9110;BME280;4590;51.462;6.692;2023-06-10T06:59:16;101321.84;;;26.01;36.07
9110;BME280;4590;51.462;6.692;2023-06-10T07:01:44;101317.88;;;26.23;38.58
9110;BME280;4590;51.462;6.692;2023-06-10T07:04:09;101315.50;;;26.29;36.71
9110;BME280;4590;51.462;6.692;2023-06-10T07:06:35;101317.53;;;26.35;36.95
9110;BME280;4590;51.462;6.692;2023-06-10T07:09:00;101314.72;;;26.39;37.30
9110;BME280;4590;51.462;6.692;2023-06-10T07:11:25;101314.31;;;26.37;36.32
9110;BME280;4590;51.462;6.692;2023-06-10T07:13:51;101330.84;;;26.38;36.79
9110;BME280;4590;51.462;6.692;2023-06-10T07:16:16;101308.69;;;26.51;36.81
9110;BME280;4590;51.462;6.692;2023-06-10T07:18:41;101323.22;;;26.57;35.29
9110;BME280;4590;51.462;6.692;2023-06-10T07:21:07;101313.91;;;26.63;35.42
9110;BME280;4590;51.462;6.692;2023-06-10T07:23:32;101313.94;;;26.70;35.39
9110;BME280;4590;51.462;6.692;2023-06-10T07:25:57;101317.97;;;26.83;34.76
9110;BME280;4590;51.462;6.692;2023-06-10T07:28:22;101322.41;;;26.92;34.49
9110;BME280;4590;51.462;6.692;2023-06-10T07:30:47;101323.63;;;27.08;35.69
9110;BME280;4590;51.462;6.692;2023-06-10T07:33:12;101317.16;;;27.15;34.17
9110;BME280;4590;51.462;6.692;2023-06-10T07:35:38;101312.28;;;27.33;34.47
9110;BME280;4590;51.462;6.692;2023-06-10T07:38:03;101314.72;;;27.38;34.01
9110;BME280;4590;51.462;6.692;2023-06-10T07:40:28;101305.78;;;27.57;34.99
9110;BME280;4590;51.462;6.692;2023-06-10T07:42:53;101300.06;;;27.72;32.75
9110;BME280;4590;51.462;6.692;2023-06-10T07:45:18;101304.06;;;27.85;33.38
9110;BME280;4590;51.462;6.692;2023-06-10T07:47:43;101302.72;;;28.07;33.51
9110;BME280;4590;51.462;6.692;2023-06-10T07:50:09;101300.16;;;28.34;33.55
9110;BME280;4590;51.462;6.692;2023-06-10T07:52:34;101304.53;;;28.46;33.48
9110;BME280;4590;51.462;6.692;2023-06-10T07:54:59;101316.56;;;28.60;31.52
9110;BME280;4590;51.462;6.692;2023-06-10T07:57:24;101309.97;;;28.74;31.66
9110;BME280;4590;51.462;6.692;2023-06-10T07:59:50;101315.63;;;28.74;31.32
9110;BME280;4590;51.462;6.692;2023-06-10T08:02:15;101309.94;;;28.81;31.09
9110;BME280;4590;51.462;6.692;2023-06-10T08:04:40;101315.22;;;28.79;30.88
9110;BME280;4590;51.462;6.692;2023-06-10T08:07:05;101311.13;;;28.84;31.88
9110;BME280;4590;51.462;6.692;2023-06-10T08:09:30;101313.94;;;28.87;31.67
9110;BME280;4590;51.462;6.692;2023-06-10T08:11:56;101320.25;;;29.06;32.71
9110;BME280;4590;51.462;6.692;2023-06-10T08:14:21;101310.34;;;29.24;32.15
9110;BME280;4590;51.462;6.692;2023-06-10T08:16:46;101305.75;;;29.41;31.68
9110;BME280;4590;51.462;6.692;2023-06-10T08:19:11;101312.94;;;29.49;32.33
9110;BME280;4590;51.462;6.692;2023-06-10T08:21:37;101313.13;;;29.65;30.92
9110;BME280;4590;51.462;6.692;2023-06-10T08:24:04;101311.22;;;29.89;32.32
9110;BME280;4590;51.462;6.692;2023-06-10T08:26:29;101312.91;;;29.83;30.93
9110;BME280;4590;51.462;6.692;2023-06-10T08:28:55;101314.28;;;29.72;29.80
9110;BME280;4590;51.462;6.692;2023-06-10T08:31:20;101323.31;;;29.59;29.54
9110;BME280;4590;51.462;6.692;2023-06-10T08:33:45;101313.81;;;30.07;30.50
9110;BME280;4590;51.462;6.692;2023-06-10T08:36:11;101311.53;;;30.25;29.87
9110;BME280;4590;51.462;6.692;2023-06-10T08:38:36;101316.88;;;30.50;30.63
9110;BME280;4590;51.462;6.692;2023-06-10T08:41:01;101314.13;;;30.70;31.28
9110;BME280;4590;51.462;6.692;2023-06-10T08:43:34;101322.44;;;30.84;30.08
9110;BME280;4590;51.462;6.692;2023-06-10T08:46:03;101305.84;;;31.02;29.44
9110;BME280;4590;51.462;6.692;2023-06-10T08:48:29;101320.50;;;31.24;31.19
9110;BME280;4590;51.462;6.692;2023-06-10T08:50:55;101313.69;;;31.42;30.16
9110;BME280;4590;51.462;6.692;2023-06-10T08:53:20;101315.88;;;31.54;30.87
9110;BME280;4590;51.462;6.692;2023-06-10T08:55:46;101309.94;;;31.64;29.76
9110;BME280;4590;51.462;6.692;2023-06-10T08:58:14;101318.38;;;31.71;28.42
9110;BME280;4590;51.462;6.692;2023-06-10T09:00:39;101322.09;;;31.68;28.79
9110;BME280;4590;51.462;6.692;2023-06-10T09:03:04;101307.50;;;31.66;29.79
9110;BME280;4590;51.462;6.692;2023-06-10T09:05:31;101310.66;;;31.72;28.93
9110;BME280;4590;51.462;6.692;2023-06-10T09:07:58;101313.00;;;31.77;30.07
9110;BME280;4590;51.462;6.692;2023-06-10T09:10:23;101308.91;;;31.78;28.44
9110;BME280;4590;51.462;6.692;2023-06-10T09:12:50;101313.78;;;31.78;27.62
9110;BME280;4590;51.462;6.692;2023-06-10T09:15:15;101305.03;;;31.88;29.30
9110;BME280;4590;51.462;6.692;2023-06-10T09:17:42;101302.72;;;31.99;29.87
9110;BME280;4590;51.462;6.692;2023-06-10T09:20:07;101312.44;;;32.02;28.66
9110;BME280;4590;51.462;6.692;2023-06-10T09:22:33;101296.81;;;32.10;28.42
9110;BME280;4590;51.462;6.692;2023-06-10T09:25:05;101297.75;;;32.23;29.36
9110;BME280;4590;51.462;6.692;2023-06-10T09:27:32;101298.13;;;32.25;28.05
9110;BME280;4590;51.462;6.692;2023-06-10T09:29:57;101293.94;;;32.30;27.44
9110;BME280;4590;51.462;6.692;2023-06-10T09:32:23;101293.69;;;32.40;28.09
9110;BME280;4590;51.462;6.692;2023-06-10T09:34:49;101295.81;;;32.53;27.52
9110;BME280;4590;51.462;6.692;2023-06-10T09:37:22;101293.41;;;32.51;28.66
9110;BME280;4590;51.462;6.692;2023-06-10T09:40:06;101293.41;;;32.67;27.42
9110;BME280;4590;51.462;6.692;2023-06-10T09:42:37;101299.72;;;32.59;26.91
9110;BME280;4590;51.462;6.692;2023-06-10T09:45:03;101289.88;;;32.11;26.58
9110;BME280;4590;51.462;6.692;2023-06-10T09:47:29;101282.91;;;32.48;26.58
9110;BME280;4590;51.462;6.692;2023-06-10T09:49:54;101289.41;;;32.65;26.52
9110;BME280;4590;51.462;6.692;2023-06-10T09:52:23;101285.22;;;32.69;26.22
9110;BME280;4590;51.462;6.692;2023-06-10T09:54:49;101284.38;;;32.72;25.39
9110;BME280;4590;51.462;6.692;2023-06-10T09:57:14;101275.16;;;32.65;26.16
9110;BME280;4590;51.462;6.692;2023-06-10T09:59:41;101288.09;;;32.69;26.82
9110;BME280;4590;51.462;6.692;2023-06-10T10:02:06;101280.88;;;32.81;26.61
9110;BME280;4590;51.462;6.692;2023-06-10T10:04:37;101285.25;;;32.86;26.57
9110;BME280;4590;51.462;6.692;2023-06-10T10:07:03;101278.31;;;32.87;26.88
9110;BME280;4590;51.462;6.692;2023-06-10T10:09:28;101286.06;;;32.86;26.82
9110;BME280;4590;51.462;6.692;2023-06-10T10:11:53;101279.56;;;32.86;26.11
9110;BME280;4590;51.462;6.692;2023-06-10T10:14:19;101278.38;;;32.99;26.19
9110;BME280;4590;51.462;6.692;2023-06-10T10:16:45;101273.63;;;33.09;26.17
9110;BME280;4590;51.462;6.692;2023-06-10T10:19:11;101277.34;;;33.06;25.40
9110;BME280;4590;51.462;6.692;2023-06-10T10:21:44;101288.47;;;32.88;25.22
9110;BME280;4590;51.462;6.692;2023-06-10T10:24:16;101276.41;;;32.96;25.43
9110;BME280;4590;51.462;6.692;2023-06-10T10:26:42;101278.53;;;32.92;25.74
9110;BME280;4590;51.462;6.692;2023-06-10T10:29:29;101279.91;;;32.88;24.66
9110;BME280;4590;51.462;6.692;2023-06-10T10:31:56;101281.59;;;32.69;24.29
9110;BME280;4590;51.462;6.692;2023-06-10T10:34:24;101274.28;;;32.52;25.24
9110;BME280;4590;51.462;6.692;2023-06-10T10:36:52;101273.31;;;32.58;24.93
9110;BME280;4590;51.462;6.692;2023-06-10T10:39:17;101267.25;;;32.56;24.09
9110;BME280;4590;51.462;6.692;2023-06-10T10:41:43;101262.06;;;32.67;24.61
9110;BME280;4590;51.462;6.692;2023-06-10T10:44:09;101259.69;;;32.82;25.53
9110;BME280;4590;51.462;6.692;2023-06-10T10:46:41;101265.38;;;32.82;25.21
9110;BME280;4590;51.462;6.692;2023-06-10T10:49:07;101260.19;;;32.93;24.69
9110;BME280;4590;51.462;6.692;2023-06-10T10:51:33;101259.84;;;32.91;24.82
9110;BME280;4590;51.462;6.692;2023-06-10T10:54:09;101252.88;;;32.92;24.65
9110;BME280;4590;51.462;6.692;2023-06-10T10:56:34;101253.41;;;33.03;24.68
9110;BME280;4590;51.462;6.692;2023-06-10T10:59:03;101255.69;;;33.08;24.15
9110;BME280;4590;51.462;6.692;2023-06-10T11:01:39;101244.66;;;33.10;23.49
9110;BME280;4590;51.462;6.692;2023-06-10T11:04:06;101241.84;;;33.23;23.40
9110;BME280;4590;51.462;6.692;2023-06-10T11:06:32;101246.50;;;33.33;24.34
9110;BME280;4590;51.462;6.692;2023-06-10T11:08:57;101246.97;;;33.16;23.68
9110;BME280;4590;51.462;6.692;2023-06-10T11:11:24;101240.88;;;33.30;23.17
9110;BME280;4590;51.462;6.692;2023-06-10T11:13:57;101245.38;;;33.15;24.04
9110;BME280;4590;51.462;6.692;2023-06-10T11:16:23;101241.13;;;32.90;23.25
9110;BME280;4590;51.462;6.692;2023-06-10T11:18:53;101236.41;;;33.00;23.69
9110;BME280;4590;51.462;6.692;2023-06-10T11:21:18;101243.84;;;32.81;24.38
9110;BME280;4590;51.462;6.692;2023-06-10T11:23:43;101229.41;;;32.72;24.78
9110;BME280;4590;51.462;6.692;2023-06-10T11:28:40;101229.66;;;32.78;24.61
9110;BME280;4590;51.462;6.692;2023-06-10T11:31:06;101234.75;;;32.54;23.89
9110;BME280;4590;51.462;6.692;2023-06-10T11:33:31;101225.84;;;32.52;24.31
9110;BME280;4590;51.462;6.692;2023-06-10T11:35:57;101228.34;;;32.33;24.32
9110;BME280;4590;51.462;6.692;2023-06-10T11:38:23;101221.25;;;32.25;24.60
9110;BME280;4590;51.462;6.692;2023-06-10T11:40:48;101227.50;;;32.17;24.35
9110;BME280;4590;51.462;6.692;2023-06-10T11:43:15;101235.59;;;32.02;24.55
9110;BME280;4590;51.462;6.692;2023-06-10T11:45:43;101230.03;;;31.79;25.27
9110;BME280;4590;51.462;6.692;2023-06-10T11:48:09;101226.66;;;31.84;25.60
9110;BME280;4590;51.462;6.692;2023-06-10T11:50:34;101224.41;;;31.75;24.90
9110;BME280;4590;51.462;6.692;2023-06-10T11:52:59;101221.84;;;31.81;25.33
9110;BME280;4590;51.462;6.692;2023-06-10T11:55:41;101218.28;;;31.77;25.61
9110;BME280;4590;51.462;6.692;2023-06-10T11:58:12;101215.59;;;31.69;25.23
9110;BME280;4590;51.462;6.692;2023-06-10T12:00:43;101215.75;;;31.62;24.57
9110;BME280;4590;51.462;6.692;2023-06-10T12:03:08;101210.38;;;31.64;25.31
9110;BME280;4590;51.462;6.692;2023-06-10T12:05:33;101204.28;;;31.66;25.21
9110;BME280;4590;51.462;6.692;2023-06-10T12:08:08;101214.06;;;31.65;25.46
9110;BME280;4590;51.462;6.692;2023-06-10T12:10:38;101213.72;;;31.43;24.28
9110;BME280;4590;51.462;6.692;2023-06-10T12:13:03;101208.22;;;31.52;24.40
9110;BME280;4590;51.462;6.692;2023-06-10T12:15:29;101210.78;;;31.47;24.80
9110;BME280;4590;51.462;6.692;2023-06-10T12:17:54;101212.84;;;31.03;24.30
9110;BME280;4590;51.462;6.692;2023-06-10T12:20:29;101215.38;;;31.41;24.83
9110;BME280;4590;51.462;6.692;2023-06-10T12:22:56;101195.34;;;31.48;24.48
9110;BME280;4590;51.462;6.692;2023-06-10T12:25:25;101203.34;;;31.33;23.68
9110;BME280;4590;51.462;6.692;2023-06-10T12:27:51;101195.66;;;31.14;24.23
9110;BME280;4590;51.462;6.692;2023-06-10T12:30:22;101184.16;;;31.37;24.80
9110;BME280;4590;51.462;6.692;2023-06-10T12:32:47;101191.19;;;31.32;24.61
9110;BME280;4590;51.462;6.692;2023-06-10T12:35:13;101193.00;;;31.23;24.32
9110;BME280;4590;51.462;6.692;2023-06-10T12:37:39;101191.69;;;31.47;24.83
9110;BME280;4590;51.462;6.692;2023-06-10T12:40:05;101185.56;;;31.29;24.56
9110;BME280;4590;51.462;6.692;2023-06-10T12:42:36;101203.41;;;31.10;24.61
9110;BME280;4590;51.462;6.692;2023-06-10T12:45:02;101199.06;;;31.25;24.92
9110;BME280;4590;51.462;6.692;2023-06-10T12:47:32;101186.16;;;31.40;25.41
9110;BME280;4590;51.462;6.692;2023-06-10T12:49:58;101188.31;;;31.52;24.78
9110;BME280;4590;51.462;6.692;2023-06-10T12:52:24;101188.38;;;31.49;24.98
9110;BME280;4590;51.462;6.692;2023-06-10T12:54:49;101181.91;;;31.48;25.01
9110;BME280;4590;51.462;6.692;2023-06-10T12:57:14;101183.09;;;31.31;24.74
9110;BME280;4590;51.462;6.692;2023-06-10T12:59:39;101180.31;;;31.47;25.15
9110;BME280;4590;51.462;6.692;2023-06-10T13:02:05;101183.97;;;31.28;25.01
9110;BME280;4590;51.462;6.692;2023-06-10T13:04:30;101195.53;;;31.37;24.90
9110;BME280;4590;51.462;6.692;2023-06-10T13:06:55;101170.25;;;31.43;24.66
9110;BME280;4590;51.462;6.692;2023-06-10T13:09:21;101184.91;;;31.41;24.89